createdAt,value
2018-09-01T00:01:05.685Z,14.11
2018-09-01T00:03:34.954Z,14.11
2018-09-01T00:06:04.288Z,14.13
2018-09-01T00:08:33.646Z,14.14
2018-09-01T00:11:03.004Z,14.13
2018-09-01T00:13:32.314Z,14.17
2018-09-01T00:16:01.642Z,14.17
2018-09-01T00:18:30.955Z,14.10
2018-09-01T00:21:00.303Z,14.11
2018-09-01T00:23:29.578Z,14.13
2018-09-01T00:25:58.870Z,14.13
2018-09-01T00:28:28.195Z,14.11
2018-09-01T00:30:57.480Z,14.10
2018-09-01T00:33:26.783Z,14.14
2018-09-01T00:35:56.104Z,14.20
2018-09-01T00:38:30.670Z,14.19
2018-09-01T00:40:59.974Z,14.11
2018-09-01T00:43:29.279Z,14.16
2018-09-01T00:45:58.570Z,14.15
2018-09-01T00:48:27.855Z,14.16
2018-09-01T00:50:57.195Z,14.13
2018-09-01T00:53:26.505Z,14.13
2018-09-01T00:55:55.818Z,14.17
2018-09-01T00:58:25.139Z,14.16
2018-09-01T01:00:54.470Z,14.14
2018-09-01T01:03:23.761Z,14.08
2018-09-01T01:05:53.130Z,14.12
2018-09-01T01:08:22.442Z,14.15
2018-09-01T01:10:51.742Z,14.12
2018-09-01T01:13:21.020Z,14.12
2018-09-01T01:15:50.306Z,14.12
2018-09-01T01:18:19.602Z,14.15
2018-09-01T01:20:48.919Z,14.17
2018-09-01T01:23:18.172Z,14.11
2018-09-01T01:25:47.500Z,14.06
2018-09-01T01:28:16.792Z,14.06
2018-09-01T01:30:46.084Z,14.07
2018-09-01T01:33:15.405Z,14.08
2018-09-01T01:35:44.733Z,14.04
2018-09-01T01:38:14.043Z,14.04
2018-09-01T01:40:43.355Z,14.01
2018-09-01T01:43:12.646Z,14.01
2018-09-01T01:45:41.942Z,13.99
2018-09-01T01:48:11.243Z,13.98
2018-09-01T01:50:40.552Z,13.91
2018-09-01T01:53:09.846Z,13.93
2018-09-01T01:55:39.108Z,13.91
2018-09-01T01:58:08.422Z,13.93
2018-09-01T02:00:37.764Z,13.94
2018-09-01T02:03:07.074Z,13.89
2018-09-01T02:05:37.353Z,13.88
2018-09-01T02:08:06.683Z,13.93
2018-09-01T02:10:36.018Z,13.95
2018-09-01T02:13:05.314Z,13.95
2018-09-01T02:15:34.662Z,13.89
2018-09-01T02:18:03.987Z,13.86
2018-09-01T02:20:33.314Z,13.82
2018-09-01T02:23:02.616Z,13.79
2018-09-01T02:25:31.979Z,13.71
2018-09-01T02:28:01.305Z,13.66
2018-09-01T02:30:30.626Z,13.63
2018-09-01T02:32:59.969Z,13.60
2018-09-01T02:35:29.297Z,13.52
2018-09-01T02:37:58.638Z,13.48
2018-09-01T02:40:27.930Z,13.45
2018-09-01T02:42:57.242Z,13.36
2018-09-01T02:45:26.578Z,13.31
2018-09-01T02:47:55.865Z,13.26
2018-09-01T02:50:25.183Z,13.23
2018-09-01T02:52:54.500Z,13.22
2018-09-01T02:55:23.782Z,13.17
2018-09-01T02:57:53.096Z,13.14
2018-09-01T03:00:27.502Z,13.15
2018-09-01T03:02:56.834Z,13.09
2018-09-01T03:05:26.151Z,13.09
2018-09-01T03:07:55.442Z,13.00
2018-09-01T03:10:24.714Z,13.04
2018-09-01T03:12:54.033Z,13.05
2018-09-01T03:15:23.359Z,13.00
2018-09-01T03:17:52.732Z,12.99
2018-09-01T03:20:22.075Z,12.91
2018-09-01T03:22:51.396Z,12.94
2018-09-01T03:25:20.746Z,12.91
2018-09-01T03:27:50.046Z,12.87
2018-09-01T03:30:19.430Z,12.87
2018-09-01T03:32:48.738Z,12.86
2018-09-01T03:35:18.032Z,12.85
2018-09-01T03:37:47.323Z,12.78
2018-09-01T03:40:16.602Z,12.78
2018-09-01T03:42:45.933Z,12.73
2018-09-01T03:45:15.243Z,12.70
2018-09-01T03:47:44.551Z,12.68
2018-09-01T03:50:13.878Z,12.67
2018-09-01T03:52:43.238Z,12.62
2018-09-01T03:55:12.549Z,12.53
2018-09-01T03:57:41.911Z,12.51
2018-09-01T04:00:11.215Z,12.52
2018-09-01T04:02:40.555Z,12.43
2018-09-01T04:05:09.858Z,12.40
2018-09-01T04:07:39.195Z,12.38
2018-09-01T04:10:08.565Z,12.36
2018-09-01T04:12:37.858Z,12.28
2018-09-01T04:15:07.913Z,12.26
2018-09-01T04:17:37.263Z,12.26
2018-09-01T04:20:06.811Z,12.20
2018-09-01T04:22:36.102Z,12.19
2018-09-01T04:25:05.470Z,12.16
2018-09-01T04:27:34.737Z,12.14
2018-09-01T04:30:04.086Z,12.06
2018-09-01T04:32:33.402Z,12.08
2018-09-01T04:35:02.865Z,12.04
2018-09-01T04:37:32.200Z,12.02
2018-09-01T04:40:01.501Z,12.01
2018-09-01T04:42:30.806Z,11.99
2018-09-01T04:45:00.108Z,11.97
2018-09-01T04:47:29.466Z,11.91
2018-09-01T04:49:58.797Z,11.88
2018-09-01T04:52:28.168Z,11.91
2018-09-01T04:54:57.519Z,11.89
2018-09-01T04:57:26.915Z,11.86
2018-09-01T04:59:56.197Z,11.87
2018-09-01T05:02:25.511Z,11.91
2018-09-01T05:04:54.806Z,11.94
2018-09-01T05:07:24.183Z,11.91
2018-09-01T05:09:53.464Z,11.93
2018-09-01T05:12:22.774Z,11.95
2018-09-01T05:14:52.065Z,12.02
2018-09-01T05:17:21.369Z,12.05
2018-09-01T05:19:50.675Z,12.11
2018-09-01T05:22:20.001Z,12.33
2018-09-01T05:24:49.376Z,12.34
2018-09-01T05:27:18.718Z,12.43
2018-09-01T05:29:48.077Z,12.46
2018-09-01T05:32:17.431Z,12.51
2018-09-01T05:34:46.928Z,12.46
2018-09-01T05:37:16.314Z,12.47
2018-09-01T05:39:45.714Z,12.54
2018-09-01T05:42:15.044Z,12.54
2018-09-01T05:44:44.791Z,12.55
2018-09-01T05:47:14.207Z,12.54
2018-09-01T05:49:43.504Z,12.56
2018-09-01T05:52:12.820Z,12.67
2018-09-01T05:54:42.194Z,12.68
2018-09-01T05:57:11.521Z,12.64
2018-09-01T05:59:40.838Z,13.16
2018-09-01T06:02:10.198Z,12.80
2018-09-01T06:04:39.522Z,12.66
2018-09-01T06:07:08.820Z,13.07
2018-09-01T06:09:38.115Z,13.51
2018-09-01T06:12:07.491Z,13.10
2018-09-01T06:14:36.829Z,13.05
2018-09-01T06:17:06.977Z,12.94
2018-09-01T06:19:36.331Z,12.95
2018-09-01T06:22:05.671Z,13.01
2018-09-01T06:24:34.935Z,12.98
2018-09-01T06:27:08.501Z,13.22
2018-09-01T06:29:37.833Z,13.39
2018-09-01T06:32:08.027Z,13.53
2018-09-01T06:34:37.337Z,13.74
2018-09-01T06:37:06.661Z,13.96
2018-09-01T06:39:35.887Z,13.84
2018-09-01T06:42:05.120Z,13.63
2018-09-01T06:44:34.476Z,14.17
2018-09-01T06:47:03.793Z,14.67
2018-09-01T06:49:33.089Z,15.21
2018-09-01T06:52:02.464Z,14.45
2018-09-01T06:54:31.771Z,14.59
2018-09-01T06:57:01.059Z,14.64
2018-09-01T06:59:30.462Z,14.90
2018-09-01T07:01:59.822Z,14.92
2018-09-01T07:04:29.148Z,15.17
2018-09-01T07:06:58.470Z,14.55
2018-09-01T07:09:27.832Z,14.55
2018-09-01T07:11:57.907Z,14.58
2018-09-01T07:14:28.475Z,14.63
2018-09-01T07:16:58.913Z,15.00
2018-09-01T07:19:28.239Z,14.84
2018-09-01T07:21:57.652Z,14.78
2018-09-01T07:24:26.985Z,14.54
2018-09-01T07:26:56.360Z,14.46
2018-09-01T07:29:25.668Z,14.27
2018-09-01T07:31:55.026Z,14.32
2018-09-01T07:34:24.353Z,14.34
2018-09-01T07:36:53.645Z,14.31
2018-09-01T07:39:23.008Z,14.63
2018-09-01T07:41:52.279Z,14.52
2018-09-01T07:44:21.580Z,14.94
2018-09-01T07:46:51.166Z,15.09
2018-09-01T07:49:20.493Z,15.56
2018-09-01T07:51:49.806Z,15.21
2018-09-01T07:54:19.139Z,15.34
2018-09-01T07:56:48.451Z,15.18
2018-09-01T07:59:17.840Z,15.74
2018-09-01T08:01:47.121Z,15.82
2018-09-01T08:04:16.423Z,15.79
2018-09-01T08:06:45.774Z,15.57
2018-09-01T08:09:15.181Z,15.49
2018-09-01T08:11:44.505Z,15.30
2018-09-01T08:14:13.910Z,15.18
2018-09-01T08:16:43.201Z,15.03
2018-09-01T08:19:12.604Z,14.97
2018-09-01T08:21:41.634Z,14.96
2018-09-01T08:24:11.005Z,14.90
2018-09-01T08:26:40.353Z,15.23
2018-09-01T08:29:09.645Z,15.46
2018-09-01T08:31:38.918Z,15.74
2018-09-01T08:34:08.298Z,15.99
2018-09-01T08:36:37.614Z,16.01
2018-09-01T08:39:08.599Z,16.30
2018-09-01T08:41:38.012Z,17.02
2018-09-01T08:44:07.717Z,17.45
2018-09-01T08:46:37.031Z,17.61
2018-09-01T08:49:06.401Z,17.46
2018-09-01T08:51:35.686Z,18.03
2018-09-01T08:54:04.963Z,18.14
2018-09-01T08:56:34.276Z,17.93
2018-09-01T08:59:03.774Z,17.66
2018-09-01T09:01:33.043Z,18.09
2018-09-01T09:04:02.553Z,18.21
2018-09-01T09:06:31.906Z,18.01
2018-09-01T09:09:01.373Z,17.70
2018-09-01T09:11:30.746Z,17.81
2018-09-01T09:14:01.721Z,17.97
2018-09-01T09:16:31.393Z,18.10
2018-09-01T09:19:00.767Z,17.94
2018-09-01T09:21:30.134Z,18.17
2018-09-01T09:23:59.504Z,17.90
2018-09-01T09:26:29.018Z,18.16
2018-09-01T09:28:58.426Z,18.39
2018-09-01T09:31:27.755Z,18.58
2018-09-01T09:33:57.382Z,18.86
2018-09-01T09:36:26.794Z,18.76
2018-09-01T09:38:56.306Z,18.91
2018-09-01T09:41:25.726Z,18.83
2018-09-01T09:43:55.252Z,19.01
2018-09-01T09:46:25.349Z,18.74
2018-09-01T09:48:54.799Z,19.09
2018-09-01T09:51:24.467Z,19.22
2018-09-01T09:53:53.937Z,19.14
2018-09-01T09:56:23.384Z,19.18
2018-09-01T09:58:53.019Z,19.53
2018-09-01T10:01:27.639Z,18.79
2018-09-01T10:03:57.263Z,19.18
2018-09-01T10:06:26.665Z,19.06
2018-09-01T10:08:56.179Z,18.74
2018-09-01T10:11:25.699Z,18.80
2018-09-01T10:13:55.389Z,18.84
2018-09-01T10:16:25.170Z,18.75
2018-09-01T10:18:54.625Z,18.69
2018-09-01T10:21:24.015Z,18.85
2018-09-01T10:23:53.417Z,19.01
2018-09-01T10:26:22.756Z,19.58
2018-09-01T10:28:52.128Z,19.19
2018-09-01T10:31:21.579Z,19.05
2018-09-01T10:33:51.003Z,19.27
2018-09-01T10:36:20.630Z,19.62
2018-09-01T10:38:50.083Z,19.66
2018-09-01T10:41:19.454Z,19.57
2018-09-01T10:43:49.031Z,20.01
2018-09-01T10:46:18.521Z,20.16
2018-09-01T10:48:47.978Z,20.55
2018-09-01T10:51:17.606Z,20.97
2018-09-01T10:53:47.088Z,20.69
2018-09-01T10:56:16.719Z,20.97
2018-09-01T10:58:46.208Z,21.23
2018-09-01T11:01:15.736Z,21.03
2018-09-01T11:03:45.153Z,20.49
2018-09-01T11:06:14.619Z,19.74
2018-09-01T11:08:44.122Z,19.83
2018-09-01T11:11:13.764Z,20.24
2018-09-01T11:13:43.179Z,19.78
2018-09-01T11:16:12.530Z,19.56
2018-09-01T11:18:41.851Z,19.65
2018-09-01T11:21:11.232Z,19.47
2018-09-01T11:23:40.616Z,19.59
2018-09-01T11:26:10.027Z,19.94
2018-09-01T11:28:39.446Z,20.57
2018-09-01T11:31:09.048Z,20.75
2018-09-01T11:33:38.631Z,21.10
2018-09-01T11:36:08.056Z,21.38
2018-09-01T11:38:37.461Z,20.66
2018-09-01T11:41:07.109Z,21.60
2018-09-01T11:43:36.523Z,20.57
2018-09-01T11:46:06.263Z,19.97
2018-09-01T11:48:35.680Z,20.24
2018-09-01T11:51:05.217Z,20.34
2018-09-01T11:53:34.849Z,20.94
2018-09-01T11:56:04.372Z,20.64
2018-09-01T11:58:33.871Z,20.46
2018-09-01T12:01:03.371Z,20.09
2018-09-01T12:03:32.875Z,20.21
2018-09-01T12:06:02.199Z,20.33
2018-09-01T12:08:31.711Z,21.01
2018-09-01T12:11:01.326Z,21.06
2018-09-01T12:13:30.851Z,21.47
2018-09-01T12:16:00.311Z,20.50
2018-09-01T12:18:29.839Z,19.95
2018-09-01T12:20:59.442Z,19.87
2018-09-01T12:23:28.915Z,20.01
2018-09-01T12:25:58.441Z,20.10
2018-09-01T12:28:27.916Z,20.38
2018-09-01T12:30:57.290Z,20.63
2018-09-01T12:33:26.762Z,20.39
2018-09-01T12:35:56.192Z,20.56
2018-09-01T12:38:25.530Z,20.41
2018-09-01T12:40:54.899Z,20.72
2018-09-01T12:43:24.440Z,20.88
2018-09-01T12:45:53.898Z,21.00
2018-09-01T12:48:23.228Z,20.50
2018-09-01T12:50:52.568Z,20.65
2018-09-01T12:53:22.046Z,20.60
2018-09-01T12:55:51.550Z,20.62
2018-09-01T12:58:20.924Z,20.63
2018-09-01T13:00:50.408Z,20.34
2018-09-01T13:03:19.794Z,20.32
2018-09-01T13:05:49.256Z,20.16
2018-09-01T13:08:18.768Z,20.15
2018-09-01T13:10:48.750Z,20.50
2018-09-01T13:13:18.964Z,21.69
2018-09-01T13:15:48.414Z,22.16
2018-09-01T13:18:17.889Z,21.46
2018-09-01T13:20:47.419Z,21.11
2018-09-01T13:23:16.888Z,21.07
2018-09-01T13:25:46.355Z,20.96
2018-09-01T13:28:15.751Z,21.14
2018-09-01T13:30:45.432Z,20.96
2018-09-01T13:33:14.994Z,20.80
2018-09-01T13:35:44.433Z,20.62
2018-09-01T13:38:13.861Z,20.60
2018-09-01T13:40:43.439Z,20.49
2018-09-01T13:43:13.201Z,20.67
2018-09-01T13:45:42.726Z,20.97
2018-09-01T13:48:12.035Z,21.05
2018-09-01T13:50:41.454Z,20.50
2018-09-01T13:53:10.836Z,20.37
2018-09-01T13:55:40.173Z,20.60
2018-09-01T13:58:09.470Z,20.39
2018-09-01T14:00:38.858Z,20.67
2018-09-01T14:03:08.197Z,21.20
2018-09-01T14:05:37.507Z,21.67
2018-09-01T14:08:06.821Z,21.44
2018-09-01T14:10:36.196Z,21.12
2018-09-01T14:13:05.590Z,20.93
2018-09-01T14:15:34.906Z,20.82
2018-09-01T14:18:04.234Z,20.90
2018-09-01T14:20:33.640Z,21.01
2018-09-01T14:23:02.920Z,20.90
2018-09-01T14:25:32.286Z,20.93
2018-09-01T14:28:02.066Z,21.06
2018-09-01T14:30:31.364Z,20.99
2018-09-01T14:33:00.718Z,21.20
2018-09-01T14:35:29.986Z,21.16
2018-09-01T14:37:59.370Z,21.24
2018-09-01T14:40:28.670Z,21.20
2018-09-01T14:42:58.030Z,21.09
2018-09-01T14:45:27.363Z,21.42
2018-09-01T14:47:56.695Z,21.23
2018-09-01T14:50:26.055Z,21.28
2018-09-01T14:52:55.422Z,21.50
2018-09-01T14:55:24.728Z,21.17
2018-09-01T14:57:54.103Z,21.10
2018-09-01T15:00:23.431Z,21.24
2018-09-01T15:02:52.828Z,21.30
2018-09-01T15:05:22.197Z,21.39
2018-09-01T15:07:51.547Z,21.26
2018-09-01T15:10:20.952Z,21.01
2018-09-01T15:12:50.242Z,20.87
2018-09-01T15:15:19.559Z,21.01
2018-09-01T15:17:48.923Z,20.92
2018-09-01T15:20:18.235Z,20.70
2018-09-01T15:22:47.559Z,20.65
2018-09-01T15:25:16.898Z,20.87
2018-09-01T15:27:46.204Z,20.72
2018-09-01T15:30:15.498Z,20.80
2018-09-01T15:32:44.925Z,20.68
2018-09-01T15:35:14.293Z,21.00
2018-09-01T15:37:43.544Z,20.74
2018-09-01T15:40:12.842Z,20.47
2018-09-01T15:42:42.098Z,20.51
2018-09-01T15:45:11.381Z,20.61
2018-09-01T15:47:40.753Z,20.61
2018-09-01T15:50:10.134Z,20.62
2018-09-01T15:52:39.411Z,20.60
2018-09-01T15:55:09.042Z,20.65
2018-09-01T15:57:38.503Z,20.87
2018-09-01T16:00:08.066Z,20.83
2018-09-01T16:02:37.401Z,20.95
2018-09-01T16:05:07.057Z,21.13
2018-09-01T16:07:36.591Z,21.00
2018-09-01T16:10:06.077Z,20.97
2018-09-01T16:12:35.497Z,21.05
2018-09-01T16:15:04.819Z,20.70
2018-09-01T16:17:34.186Z,20.66
2018-09-01T16:20:03.452Z,20.68
2018-09-01T16:22:32.821Z,20.59
2018-09-01T16:25:02.122Z,20.51
2018-09-01T16:27:31.493Z,20.52
2018-09-01T16:30:00.755Z,20.43
2018-09-01T16:32:30.124Z,20.38
2018-09-01T16:34:59.463Z,20.26
2018-09-01T16:37:28.821Z,20.24
2018-09-01T16:39:58.200Z,20.16
2018-09-01T16:42:27.669Z,20.12
2018-09-01T16:44:57.115Z,20.00
2018-09-01T16:47:26.496Z,19.97
2018-09-01T16:49:55.915Z,19.92
2018-09-01T16:52:25.272Z,19.84
2018-09-01T16:54:54.660Z,19.80
2018-09-01T16:57:23.981Z,19.71
2018-09-01T16:59:53.326Z,19.70
2018-09-01T17:02:23.324Z,19.67
2018-09-01T17:04:52.621Z,19.64
2018-09-01T17:07:21.927Z,19.63
2018-09-01T17:09:51.734Z,19.61
2018-09-01T17:12:21.030Z,19.59
2018-09-01T17:14:50.475Z,19.53
2018-09-01T17:17:19.746Z,19.49
2018-09-01T17:19:49.035Z,19.56
2018-09-01T17:22:18.344Z,19.55
2018-09-01T17:24:47.713Z,19.54
2018-09-01T17:27:17.101Z,19.46
2018-09-01T17:29:46.542Z,19.54
2018-09-01T17:32:15.952Z,19.43
2018-09-01T17:34:45.323Z,19.41
2018-09-01T17:37:14.720Z,19.37
2018-09-01T17:39:44.114Z,19.33
2018-09-01T17:42:13.409Z,19.33
2018-09-01T17:44:42.815Z,19.27
2018-09-01T17:47:12.211Z,19.21
2018-09-01T17:49:41.755Z,19.23
2018-09-01T17:52:11.122Z,19.21
2018-09-01T17:54:40.449Z,19.22
2018-09-01T17:57:10.084Z,19.11
2018-09-01T17:59:39.384Z,19.13
2018-09-01T18:02:08.859Z,19.17
2018-09-01T18:04:38.227Z,19.17
2018-09-01T18:07:07.759Z,19.12
2018-09-01T18:09:37.125Z,19.05
2018-09-01T18:12:06.541Z,18.98
2018-09-01T18:14:35.915Z,18.94
2018-09-01T18:17:05.251Z,18.93
2018-09-01T18:19:34.623Z,18.90
2018-09-01T18:22:04.095Z,18.86
2018-09-01T18:24:33.429Z,18.80
2018-09-01T18:27:02.751Z,18.73
2018-09-01T18:29:32.382Z,18.69
2018-09-01T18:32:01.668Z,18.63
2018-09-01T18:34:31.134Z,18.59
2018-09-01T18:37:00.599Z,18.62
2018-09-01T18:39:30.198Z,18.70
2018-09-01T18:41:59.618Z,18.88
2018-09-01T18:44:28.969Z,18.78
2018-09-01T18:46:58.562Z,18.78
2018-09-01T18:49:28.022Z,18.81
2018-09-01T18:51:57.497Z,18.72
2018-09-01T18:54:26.832Z,18.65
2018-09-01T18:56:56.237Z,18.54
2018-09-01T18:59:25.498Z,18.55
2018-09-01T19:01:54.815Z,18.48
2018-09-01T19:04:24.222Z,18.42
2018-09-01T19:06:53.541Z,18.41
2018-09-01T19:09:22.843Z,18.41
2018-09-01T19:11:52.146Z,18.40
2018-09-01T19:14:21.499Z,18.45
2018-09-01T19:16:50.913Z,18.47
2018-09-01T19:19:20.539Z,18.41
2018-09-01T19:21:50.045Z,18.40
2018-09-01T19:24:20.556Z,18.49
2018-09-01T19:26:49.953Z,18.47
2018-09-01T19:29:20.556Z,18.51
2018-09-01T19:31:50.003Z,18.42
2018-09-01T19:34:19.373Z,18.42
2018-09-01T19:36:48.755Z,18.39
2018-09-01T19:39:18.263Z,18.38
2018-09-01T19:41:47.731Z,18.37
2018-09-01T19:44:17.095Z,18.32
2018-09-01T19:46:46.443Z,18.37
2018-09-01T19:49:15.795Z,18.35
2018-09-01T19:51:45.128Z,18.35
2018-09-01T19:54:14.443Z,18.35
2018-09-01T19:56:43.857Z,18.20
2018-09-01T19:59:13.433Z,18.16
2018-09-01T20:01:42.777Z,18.07
2018-09-01T20:04:12.313Z,17.98
2018-09-01T20:06:41.789Z,18.01
2018-09-01T20:09:11.271Z,17.96
2018-09-01T20:11:40.703Z,17.95
2018-09-01T20:14:10.135Z,17.85
2018-09-01T20:16:39.526Z,17.78
2018-09-01T20:19:08.910Z,17.69
2018-09-01T20:21:39.092Z,17.62
2018-09-01T20:24:08.504Z,17.63
2018-09-01T20:26:37.866Z,17.60
2018-09-01T20:29:07.291Z,17.56
2018-09-01T20:31:36.832Z,17.52
2018-09-01T20:34:06.140Z,17.49
2018-09-01T20:36:35.468Z,17.47
2018-09-01T20:39:05.639Z,17.44
2018-09-01T20:41:35.012Z,17.41
2018-09-01T20:44:04.260Z,17.39
2018-09-01T20:46:33.558Z,17.36
2018-09-01T20:49:02.939Z,17.36
2018-09-01T20:51:32.304Z,17.33
2018-09-01T20:54:01.679Z,17.29
2018-09-01T20:56:31.056Z,17.26
2018-09-01T20:59:00.425Z,17.22
2018-09-01T21:01:29.718Z,17.20
2018-09-01T21:03:59.061Z,17.23
2018-09-01T21:06:28.369Z,17.19
2018-09-01T21:08:57.842Z,17.16
2018-09-01T21:11:27.362Z,17.12
2018-09-01T21:13:56.721Z,17.12
2018-09-01T21:16:26.084Z,17.08
2018-09-01T21:18:55.369Z,17.07
2018-09-01T21:21:24.663Z,17.02
2018-09-01T21:23:53.944Z,16.99
2018-09-01T21:26:23.436Z,16.98
2018-09-01T21:28:52.774Z,16.98
2018-09-01T21:31:22.076Z,16.93
2018-09-01T21:33:51.391Z,17.00
2018-09-01T21:36:20.701Z,17.04
2018-09-01T21:38:50.043Z,17.10
2018-09-01T21:41:19.383Z,17.04
2018-09-01T21:43:49.023Z,17.05
2018-09-01T21:46:18.389Z,17.00
2018-09-01T21:48:47.852Z,17.00
2018-09-01T21:51:17.197Z,17.00
2018-09-01T21:53:46.506Z,17.01
2018-09-01T21:56:15.905Z,16.92
2018-09-01T21:58:45.227Z,16.92
2018-09-01T22:01:19.651Z,16.78
2018-09-01T22:03:49.428Z,16.81
2018-09-01T22:06:19.625Z,16.78
2018-09-01T22:08:49.330Z,16.76
2018-09-01T22:11:19.234Z,16.74
2018-09-01T22:13:48.685Z,16.70
2018-09-01T22:16:18.002Z,16.70
2018-09-01T22:18:47.558Z,16.72
2018-09-01T22:21:16.859Z,16.66
2018-09-01T22:23:46.134Z,16.67
2018-09-01T22:26:15.402Z,16.69
2018-09-01T22:28:44.650Z,16.66
2018-09-01T22:31:14.011Z,16.62
2018-09-01T22:33:43.242Z,16.58
2018-09-01T22:36:12.536Z,16.54
2018-09-01T22:38:41.821Z,16.55
2018-09-01T22:41:11.126Z,16.52
2018-09-01T22:43:40.461Z,16.50
2018-09-01T22:46:09.801Z,16.45
2018-09-01T22:48:39.267Z,16.44
2018-09-01T22:51:08.560Z,16.45
2018-09-01T22:53:37.837Z,16.39
2018-09-01T22:56:07.138Z,16.40
2018-09-01T22:58:36.422Z,16.41
2018-09-01T23:01:05.742Z,16.39
2018-09-01T23:03:35.059Z,16.34
2018-09-01T23:06:04.389Z,16.32
2018-09-01T23:08:33.649Z,16.29
2018-09-01T23:11:02.933Z,16.29
2018-09-01T23:13:32.160Z,16.30
2018-09-01T23:16:01.455Z,16.29
2018-09-01T23:18:30.814Z,16.27
2018-09-01T23:21:00.235Z,16.22
2018-09-01T23:23:29.568Z,16.23
2018-09-01T23:25:58.863Z,16.17
2018-09-01T23:28:28.127Z,16.19
2018-09-01T23:30:57.538Z,16.15
2018-09-01T23:33:26.838Z,16.15
2018-09-01T23:35:56.146Z,16.16
2018-09-01T23:38:25.433Z,16.16
2018-09-01T23:40:54.746Z,16.15
2018-09-01T23:43:24.039Z,16.14
2018-09-01T23:45:53.412Z,16.12
2018-09-01T23:48:22.731Z,16.10
2018-09-01T23:50:52.021Z,16.07
2018-09-01T23:53:21.295Z,16.01
2018-09-01T23:55:50.590Z,16.03
2018-09-01T23:58:19.857Z,15.99
